Skagerak — SGCD — position and weather

sailwx.info

Track history (hours):
 
Tides and Currents Weather Stations Pressure Air Temp Water Temp Dewpoint Dewpoint Depression Visibility Wind Speed Wind Dir Waves Ship Positions

Oceanographic research ship Skagerak (Sweden)

Detailed information on ship capabilities available from University of Delaware's Ocean Information Center.

Last reported at 2017-Apr-18 13:54 UTC. Time now 2017-Apr-26 09:58 UTC.
Position N 55°36' E 015°18'.

Length 38 m; draft 3.8 m.

Type: Dredging. MMSI: 265280000.

Date/timePositionNaut miles runAvg speedWind from/ knotsBaromVisibWave heightAir tempDewpointWater temp
2017-Apr-18 13:54N 55°36' E 015°18'4 8.7
2017-Apr-18 13:28N 55°34' E 015°12'4 8.6
2017-Apr-18 13:00N 55°33' E 015°06'4 8.5
2017-Apr-18 12:30N 55°31' E 014°59'4 8.6
2017-Apr-18 12:00N 55°29' E 014°52'4 8.6
2017-Apr-18 11:30N 55°27' E 014°45'4 8.4
2017-Apr-18 11:00N 55°25' E 014°39'4 8.4
2017-Apr-18 10:30N 55°22' E 014°34'4 8.2
2017-Apr-18 10:00N 55°19' E 014°29'4 8.6
2017-Apr-18 09:30N 55°15' E 014°25'4 8.8
2017-Apr-18 09:00N 55°12' E 014°20'4 8.5
2017-Apr-18 08:29N 55°10' E 014°13'4 9.0
2017-Apr-18 08:01N 55°10' E 014°05'5 8.7
2017-Apr-18 07:29N 55°10' E 013°57'32 8.7
2017-Apr-18 03:46N 55°13' E 013°01'3 8.2
2017-Apr-18 03:26N 55°15' E 012°57'5 8.9
2017-Apr-18 02:50N 55°16' E 012°48'3 9.2
2017-Apr-18 02:30N 55°17' E 012°43'4 8.0
2017-Apr-18 02:00N 55°20' E 012°38'5 9.8
2017-Apr-18 01:30N 55°25' E 012°40'5 9.8
2017-Apr-18 01:00N 55°30' E 012°43'5 9.1
2017-Apr-18 00:31N 55°33' E 012°48'4 7.9
2017-Apr-18 00:00N 55°36' E 012°52'4 8.3
2017-Apr-17 23:31N 55°40' E 012°56'5 9.6
2017-Apr-17 23:00N 55°44' E 012°51'5 9.2
2017-Apr-17 22:31N 55°48' E 012°47'5 9.2
2017-Apr-17 22:01N 55°53' E 012°45'5 9.2
2017-Apr-17 21:31N 55°57' E 012°42'4 9.0
2017-Apr-17 21:01N 56°01' E 012°40'4 7.5
2017-Apr-17 20:31N 56°05' E 012°36'3 6.8
2017-Apr-17 20:00N 56°07' E 012°32'3 6.8
2017-Apr-17 19:30N 56°10' E 012°30'65 9.4
2017-Apr-17 12:40N 57°12' E 011°59'4 8.7
2017-Apr-17 12:11N 57°16' E 011°57'2 8.8
2017-Apr-17 11:55N 57°19' E 011°56'4 9.2
2017-Apr-17 11:28N 57°23' E 011°53'410.0
2017-Apr-17 11:01N 57°27' E 011°51'510.2
2017-Apr-17 10:31N 57°32' E 011°49'5 9.7
2017-Apr-17 10:00N 57°37' E 011°49'4 8.6
2017-Apr-17 09:31N 57°41' E 011°50'4 7.2
2017-Apr-17 09:01N 57°42' E 011°57'0 0.0
2017-Apr-17 08:31N 57°42' E 011°57'0 0.0
2017-Apr-17 08:01N 57°42' E 011°57'0 0.1
2017-Apr-17 07:31N 57°42' E 011°57'5 9.1
2017-Apr-17 07:01N 57°41' E 011°49'2 4.9
2017-Apr-17 06:31N 57°39' E 011°52'0 0.0
2017-Apr-17 06:01N 57°39' E 011°52'0 0.0
2017-Apr-17 05:31N 57°39' E 011°52'0 0.0
2017-Apr-17 05:00N 57°39' E 011°52'0 0.0
2017-Apr-17 04:31N 57°39' E 011°52'0 0.0
2017-Apr-17 04:00N 57°39' E 011°52'0 0.0
2017-Apr-17 03:30N 57°39' E 011°52'0 0.0
2017-Apr-17 03:00N 57°39' E 011°52'0 0.0
2017-Apr-17 02:30N 57°39' E 011°52'0 0.0
2017-Apr-17 02:00N 57°39' E 011°52'0 0.0
2017-Apr-17 01:27N 57°39' E 011°52'0 0.0
2017-Apr-17 01:00N 57°39' E 011°52'0 0.0
2017-Apr-17 00:30N 57°39' E 011°52'0 0.0
2017-Apr-17 00:00N 57°39' E 011°52'0 0.0
2017-Apr-16 23:30N 57°39' E 011°52'0 0.0
2017-Apr-16 23:00N 57°39' E 011°52'0 0.0
2017-Apr-16 22:30N 57°39' E 011°52'0 0.0
2017-Apr-16 22:00N 57°39' E 011°52'0 0.0
2017-Apr-16 21:30N 57°39' E 011°52'0 0.0
2017-Apr-16 21:00N 57°39' E 011°52'0 0.0
2017-Apr-16 20:22N 57°39' E 011°52'0 0.0
2017-Apr-16 20:00N 57°39' E 011°52'0 0.0
2017-Apr-16 19:30N 57°39' E 011°52'0 0.0
2017-Apr-16 19:00N 57°39' E 011°52'0 0.0
2017-Apr-16 18:28N 57°39' E 011°52'0 0.0
2017-Apr-16 18:00N 57°39' E 011°52'0 0.0
2017-Apr-16 17:31N 57°39' E 011°52'0 0.0
2017-Apr-16 17:01N 57°39' E 011°52'0 0.0
2017-Apr-16 16:31N 57°39' E 011°52'0 0.0
2017-Apr-16 16:00N 57°39' E 011°52'0 0.0
2017-Apr-16 15:30N 57°39' E 011°52'0 0.4
2017-Apr-16 14:53N 57°39' E 011°51'0 0.3
2017-Apr-16 14:01N 57°39' E 011°52'0 0.0
2017-Apr-16 13:30N 57°39' E 011°52'0 0.0
2017-Apr-16 13:01N 57°39' E 011°52'0 0.0
2017-Apr-16 12:31N 57°39' E 011°52'0 0.2
2017-Apr-16 12:01N 57°39' E 011°52'0 0.2
2017-Apr-16 11:30N 57°39' E 011°52'0 0.0
2017-Apr-16 11:00N 57°39' E 011°52'0 0.0
2017-Apr-16 10:30N 57°39' E 011°52'0 0.0
2017-Apr-16 10:00N 57°39' E 011°52'0 0.0
2017-Apr-16 09:31N 57°39' E 011°52'0 0.0
2017-Apr-16 09:00N 57°39' E 011°52'0 0.0
2017-Apr-16 08:30N 57°39' E 011°52'0 0.0
2017-Apr-16 08:00N 57°39' E 011°52'0 0.0
2017-Apr-16 07:30N 57°39' E 011°52'0 0.0
2017-Apr-16 07:00N 57°39' E 011°52'0 0.0
2017-Apr-16 06:30N 57°39' E 011°52'0 0.0
2017-Apr-16 06:00N 57°39' E 011°52'0 0.0
2017-Apr-16 05:30N 57°39' E 011°52'0 0.0
2017-Apr-16 05:00N 57°39' E 011°52'0 0.0
2017-Apr-16 04:30N 57°39' E 011°52'0 0.0
2017-Apr-16 04:00N 57°39' E 011°52'0 0.0
2017-Apr-16 03:30N 57°39' E 011°52'0 0.1
2017-Apr-16 03:01N 57°39' E 011°51'0 0.1
2017-Apr-16 02:31N 57°39' E 011°52'0 0.1
2017-Apr-16 02:01N 57°39' E 011°52'0 0.1
2017-Apr-16 01:30N 57°39' E 011°52'0 0.1
2017-Apr-16 01:00N 57°39' E 011°52'0 0.0
2017-Apr-16 00:31N 57°39' E 011°52'0 0.0
2017-Apr-16 00:00N 57°39' E 011°52'0 0.0
2017-Apr-15 23:31N 57°39' E 011°52'0 0.0
2017-Apr-15 23:01N 57°39' E 011°52'0 0.1
2017-Apr-15 22:31N 57°39' E 011°52'0 0.1
2017-Apr-15 22:00N 57°39' E 011°52'0 0.0
2017-Apr-15 21:30N 57°39' E 011°52'0 0.0
2017-Apr-15 21:00N 57°39' E 011°52'0 0.0
2017-Apr-15 20:19N 57°39' E 011°52'0 0.0
2017-Apr-15 20:00N 57°39' E 011°52'0 0.0
2017-Apr-15 19:30N 57°39' E 011°52'0 0.0
2017-Apr-15 19:00N 57°39' E 011°52'0 0.0
2017-Apr-15 18:30N 57°39' E 011°52'0 0.0
2017-Apr-15 18:00N 57°39' E 011°52'0 0.0
2017-Apr-15 17:30N 57°39' E 011°52'0 0.0
2017-Apr-15 17:00N 57°39' E 011°52'0 0.0
2017-Apr-15 16:30N 57°39' E 011°52'0 0.0
2017-Apr-15 16:00N 57°39' E 011°52'0 0.0
2017-Apr-15 15:30N 57°39' E 011°52'0 0.0
2017-Apr-15 15:00N 57°39' E 011°52'0 0.0
2017-Apr-15 14:30N 57°39' E 011°52'0 0.0
2017-Apr-15 13:30N 57°39' E 011°52'0 0.0
2017-Apr-15 13:00N 57°39' E 011°52'0 0.0
2017-Apr-15 12:30N 57°39' E 011°52'0 0.0
2017-Apr-15 11:45N 57°39' E 011°52'0 0.0
2017-Apr-15 11:30N 57°39' E 011°52'0 0.0
2017-Apr-15 11:00N 57°39' E 011°52'0 0.0
2017-Apr-15 10:30N 57°39' E 011°52'0 0.0
2017-Apr-15 10:00N 57°39' E 011°52'0 0.0
2017-Apr-15 09:30N 57°39' E 011°52'0 0.0
2017-Apr-15 09:00N 57°39' E 011°52'0 0.0
2017-Apr-15 08:30N 57°39' E 011°52'0 0.0
2017-Apr-15 08:00N 57°39' E 011°52'0 0.0
2017-Apr-15 07:30N 57°39' E 011°52'0 0.0
2017-Apr-15 07:00N 57°39' E 011°52'0 0.0
2017-Apr-15 06:30N 57°39' E 011°52'0 0.0
2017-Apr-15 06:00N 57°39' E 011°52'0 0.0
2017-Apr-15 05:30N 57°39' E 011°52'0 0.0
2017-Apr-15 05:00N 57°39' E 011°52'0 0.1
2017-Apr-15 04:30N 57°39' E 011°52'0 0.1
2017-Apr-15 04:00N 57°39' E 011°52'0 0.0
2017-Apr-15 03:30N 57°39' E 011°52'0 0.0
2017-Apr-15 03:00N 57°39' E 011°52'0 0.0
2017-Apr-15 02:30N 57°39' E 011°52'0 0.1
2017-Apr-15 02:00N 57°39' E 011°52'0 0.1
2017-Apr-15 01:30N 57°39' E 011°52'0 0.1
2017-Apr-15 01:00N 57°39' E 011°52'0 0.0
2017-Apr-15 00:30N 57°39' E 011°52'0 0.0
2017-Apr-15 00:00N 57°39' E 011°52'0 0.0
2017-Apr-14 23:30N 57°39' E 011°52'0 0.0
2017-Apr-14 23:00N 57°39' E 011°52'0 0.3
2017-Apr-14 22:30N 57°39' E 011°51'0 0.3
2017-Apr-14 22:00N 57°39' E 011°52'0 0.0
2017-Apr-14 21:31N 57°39' E 011°52'0 0.1
2017-Apr-14 21:00N 57°39' E 011°51'0 0.1
2017-Apr-14 20:24N 57°39' E 011°52'0 0.0
2017-Apr-14 20:00N 57°39' E 011°52'0 0.0
2017-Apr-14 19:30N 57°39' E 011°52'0 0.0
2017-Apr-14 19:00N 57°39' E 011°52'0 0.0
2017-Apr-14 18:23N 57°39' E 011°52'0 0.0
2017-Apr-14 18:01N 57°39' E 011°52'0 0.0
2017-Apr-14 17:30N 57°39' E 011°52'0 0.0
2017-Apr-14 17:00N 57°39' E 011°52'0 0.0
2017-Apr-14 16:31N 57°39' E 011°52'0 0.0
2017-Apr-14 16:00N 57°39' E 011°52'0 0.0
2017-Apr-14 15:31N 57°39' E 011°52'0 0.0
2017-Apr-14 14:58N 57°39' E 011°52'0 0.0
2017-Apr-14 14:30N 57°39' E 011°52'0 0.0
2017-Apr-14 13:30N 57°39' E 011°52'0 0.0
2017-Apr-14 13:01N 57°39' E 011°52'0 0.0
2017-Apr-14 12:30N 57°39' E 011°52'0 0.2
2017-Apr-14 11:57N 57°39' E 011°52'0 0.2
2017-Apr-14 11:30N 57°39' E 011°52'0 0.0
2017-Apr-14 11:00N 57°39' E 011°52'0 0.0
2017-Apr-14 10:30N 57°39' E 011°52'0 0.0
2017-Apr-14 10:00N 57°39' E 011°52'0 0.0
2017-Apr-14 09:30N 57°39' E 011°52'0 0.0
2017-Apr-14 09:00N 57°39' E 011°52'0 0.0
2017-Apr-14 08:30N 57°39' E 011°52'0 0.0
2017-Apr-14 08:00N 57°39' E 011°52'0 0.0
2017-Apr-14 07:30N 57°39' E 011°52'0 0.0
2017-Apr-14 07:00N 57°39' E 011°52'0 0.0
2017-Apr-14 06:30N 57°39' E 011°52'0 0.0
2017-Apr-14 06:00N 57°39' E 011°52'0 0.0
2017-Apr-14 05:30N 57°39' E 011°52'0 0.0
2017-Apr-14 05:00N 57°39' E 011°52'0 0.1
2017-Apr-14 04:30N 57°39' E 011°52'0 0.1
2017-Apr-14 04:00N 57°39' E 011°52'0 0.0
2017-Apr-14 03:30N 57°39' E 011°52'0 0.0
2017-Apr-14 03:00N 57°39' E 011°52'0 0.0
2017-Apr-14 02:30N 57°39' E 011°52'0 0.0
2017-Apr-14 01:32N 57°39' E 011°52'0 0.0
2017-Apr-14 01:30N 57°39' E 011°52'0 0.0
2017-Apr-14 01:00N 57°39' E 011°52'0 0.0
2017-Apr-14 00:30N 57°39' E 011°52'0 0.0
2017-Apr-14 00:01N 57°39' E 011°52'0 0.0
2017-Apr-13 23:31N 57°39' E 011°52'0 0.0
2017-Apr-13 23:00N 57°39' E 011°52'0 0.1
2017-Apr-13 22:31N 57°39' E 011°51'0 0.1
2017-Apr-13 22:01N 57°39' E 011°51'0 0.1
2017-Apr-13 21:31N 57°39' E 011°52'0 0.0
2017-Apr-13 20:56N 57°39' E 011°52'0 0.0
2017-Apr-13 20:31N 57°39' E 011°52'0 0.0
2017-Apr-13 20:00N 57°39' E 011°52'0 0.0
2017-Apr-13 19:31N 57°39' E 011°52'0 0.0
2017-Apr-13 19:01N 57°39' E 011°52'0 0.0
2017-Apr-13 18:24N 57°39' E 011°52'0 0.0
2017-Apr-13 18:00N 57°39' E 011°52'0 0.0
2017-Apr-13 17:30N 57°39' E 011°52'0 0.0
2017-Apr-13 17:00N 57°39' E 011°52'0 0.0
2017-Apr-13 16:30N 57°39' E 011°52'0 0.0
2017-Apr-13 16:00N 57°39' E 011°52'0 0.0
2017-Apr-13 15:30N 57°39' E 011°52'0 0.0
2017-Apr-13 15:00N 57°39' E 011°52'0 0.0
2017-Apr-13 14:30N 57°39' E 011°52'0 0.0
2017-Apr-13 13:31N 57°39' E 011°52'0 0.0
2017-Apr-13 13:00N 57°39' E 011°52'0 0.0
2017-Apr-13 12:31N 57°39' E 011°52'0 0.0
2017-Apr-13 11:57N 57°39' E 011°52'0 0.0
2017-Apr-13 11:30N 57°39' E 011°52'0 0.0
2017-Apr-13 11:01N 57°39' E 011°52'0 0.0
2017-Apr-13 10:30N 57°39' E 011°52'0 0.0
2017-Apr-13 10:01N 57°39' E 011°52'0 0.0
2017-Apr-13 09:31N 57°39' E 011°52'0 0.0
2017-Apr-13 09:01N 57°39' E 011°52'0 0.0
2017-Apr-13 08:31N 57°39' E 011°52'0 0.0
2017-Apr-13 08:01N 57°39' E 011°52'0 0.0
2017-Apr-13 07:31N 57°39' E 011°52'0 0.0
2017-Apr-13 07:01N 57°39' E 011°52'0 0.0
2017-Apr-13 06:30N 57°39' E 011°52'0 0.0
2017-Apr-13 06:01N 57°39' E 011°52'0 0.0
2017-Apr-13 05:31N 57°39' E 011°52'0 0.0
2017-Apr-13 05:01N 57°39' E 011°52'0 0.0
2017-Apr-13 04:30N 57°39' E 011°52'0 0.0
2017-Apr-13 04:01N 57°39' E 011°52'0 0.0
2017-Apr-13 03:31N 57°39' E 011°52'0 0.0
2017-Apr-13 03:01N 57°39' E 011°52'0 0.0
2017-Apr-13 02:30N 57°39' E 011°52'0 0.1
2017-Apr-13 02:01N 57°39' E 011°51'0 0.1
2017-Apr-13 01:30N 57°39' E 011°52'0 0.0
2017-Apr-13 01:01N 57°39' E 011°52'0 0.0
2017-Apr-13 00:23N 57°39' E 011°52'0 0.0
2017-Apr-13 00:00N 57°39' E 011°52'0 0.0
2017-Apr-12 23:30N 57°39' E 011°52'0 0.0
2017-Apr-12 23:00N 57°39' E 011°52'0 0.0
2017-Apr-12 22:30N 57°39' E 011°52'0 0.0
2017-Apr-12 22:00N 57°39' E 011°52'0 0.0
2017-Apr-12 21:30N 57°39' E 011°52'0 0.0
2017-Apr-12 20:59N 57°39' E 011°52'0 0.0
2017-Apr-12 20:31N 57°39' E 011°52'0 0.0
2017-Apr-12 20:01N 57°39' E 011°52'0 0.0
2017-Apr-12 19:31N 57°39' E 011°52'0 0.0
2017-Apr-12 19:01N 57°39' E 011°52'0 0.0
2017-Apr-12 18:30N 57°39' E 011°52'0 0.0
2017-Apr-12 18:00N 57°39' E 011°52'0 0.0
2017-Apr-12 17:31N 57°39' E 011°52'0 0.0
2017-Apr-12 17:00N 57°39' E 011°52'0 0.0
2017-Apr-12 16:30N 57°39' E 011°52'0 0.0
2017-Apr-12 16:01N 57°39' E 011°52'0 0.0
2017-Apr-12 15:31N 57°39' E 011°52'0 0.0
2017-Apr-12 15:01N 57°39' E 011°52'0 0.0
2017-Apr-12 14:00N 57°39' E 011°52'0 0.0
2017-Apr-12 13:30N 57°39' E 011°52'0 0.0
2017-Apr-12 13:00N 57°39' E 011°52'0 0.1
2017-Apr-12 12:30N 57°39' E 011°52'0 0.1
2017-Apr-12 12:00N 57°39' E 011°52'0 0.0
2017-Apr-12 11:31N 57°39' E 011°52'0 0.0
2017-Apr-12 11:00N 57°39' E 011°52'0 0.0
2017-Apr-12 10:31N 57°39' E 011°52'0 0.0
2017-Apr-12 10:01N 57°39' E 011°52'0 0.0
2017-Apr-12 09:30N 57°39' E 011°52'0 0.0
2017-Apr-12 09:00N 57°39' E 011°52'0 0.0
2017-Apr-12 08:30N 57°39' E 011°52'0 0.0
2017-Apr-12 08:01N 57°39' E 011°52'0 0.0
2017-Apr-12 07:31N 57°39' E 011°52'0 0.0
2017-Apr-12 07:01N 57°39' E 011°52'0 0.0
2017-Apr-12 06:30N 57°39' E 011°52'0 0.0
2017-Apr-12 06:01N 57°39' E 011°52'0 0.0
2017-Apr-12 05:30N 57°39' E 011°52'0 0.0
2017-Apr-12 05:01N 57°39' E 011°52'0 0.0
2017-Apr-12 04:31N 57°39' E 011°52'0 0.0
2017-Apr-12 04:00N 57°39' E 011°52'0 0.0
2017-Apr-12 03:31N 57°39' E 011°52'0 0.0
2017-Apr-12 03:01N 57°39' E 011°52'0 0.0
2017-Apr-12 02:31N 57°39' E 011°52'0 0.1
2017-Apr-12 02:00N 57°39' E 011°52'0 0.1
2017-Apr-12 01:31N 57°39' E 011°52'0 0.0
2017-Apr-12 01:01N 57°39' E 011°52'0 0.0
2017-Apr-12 00:17N 57°39' E 011°52'0 0.0
2017-Apr-12 00:01N 57°39' E 011°52'0 0.0
2017-Apr-11 23:30N 57°39' E 011°52'0 0.0
2017-Apr-11 23:00N 57°39' E 011°52'0 0.0
2017-Apr-11 22:30N 57°39' E 011°52'0 0.0
2017-Apr-11 22:01N 57°39' E 011°52'0 0.0
2017-Apr-11 21:30N 57°39' E 011°52'0 0.0
2017-Apr-11 21:00N 57°39' E 011°52'0 0.0
2017-Apr-11 20:30N 57°39' E 011°52'0 0.0
2017-Apr-11 20:01N 57°39' E 011°52'0 0.0
2017-Apr-11 19:30N 57°39' E 011°52'0 0.0
2017-Apr-11 19:00N 57°39' E 011°52'0 0.0
2017-Apr-11 18:30N 57°39' E 011°52'0 0.0
2017-Apr-11 18:01N 57°39' E 011°52'0 0.0
2017-Apr-11 17:31N 57°39' E 011°52'0 0.0
2017-Apr-11 17:01N 57°39' E 011°52'0 0.0
2017-Apr-11 16:30N 57°39' E 011°52'0 0.0
2017-Apr-11 16:01N 57°39' E 011°52'0 0.0
2017-Apr-11 15:31N 57°39' E 011°52'0 0.0
2017-Apr-11 14:57N 57°39' E 011°52'0 0.0
2017-Apr-11 14:30N 57°39' E 011°52'0 0.0
2017-Apr-11 13:30N 57°39' E 011°52'0 0.0
2017-Apr-11 13:01N 57°39' E 011°52'0 0.0
2017-Apr-11 12:31N 57°39' E 011°52'0 0.0
2017-Apr-11 12:01N 57°39' E 011°52'0 0.0
2017-Apr-11 11:31N 57°39' E 011°52'0 0.0
2017-Apr-11 11:01N 57°39' E 011°52'0 0.0
2017-Apr-11 10:31N 57°39' E 011°52'0 0.0
2017-Apr-11 10:01N 57°39' E 011°52'0 0.0
2017-Apr-11 09:31N 57°39' E 011°52'0 0.0
2017-Apr-11 09:00N 57°39' E 011°52'0 0.0
2017-Apr-11 08:31N 57°39' E 011°52'0 0.0
2017-Apr-11 08:00N 57°39' E 011°52'0 0.0
2017-Apr-11 07:30N 57°39' E 011°52'0 0.0
2017-Apr-11 07:00N 57°39' E 011°52'0 0.0
2017-Apr-11 06:30N 57°39' E 011°52'0 0.0
2017-Apr-11 06:00N 57°39' E 011°52'0 0.0
2017-Apr-11 05:30N 57°39' E 011°52'0 0.0
2017-Apr-11 05:00N 57°39' E 011°52'0 0.0
2017-Apr-11 04:30N 57°39' E 011°52'0 0.0
2017-Apr-11 04:00N 57°39' E 011°52'0 0.0
2017-Apr-11 03:30N 57°39' E 011°52'0 0.0
2017-Apr-11 03:00N 57°39' E 011°52'0 0.0
2017-Apr-11 02:30N 57°39' E 011°52'0 0.1
2017-Apr-11 02:00N 57°39' E 011°52'0 0.1
2017-Apr-11 01:30N 57°39' E 011°52'0 0.0
2017-Apr-11 01:00N 57°39' E 011°52'0 0.0
2017-Apr-11 00:28N 57°39' E 011°52'0 0.0
2017-Apr-11 00:00N 57°39' E 011°52'0 0.0
2017-Apr-10 23:30N 57°39' E 011°52'0 0.0
2017-Apr-10 23:00N 57°39' E 011°52'0 0.0
2017-Apr-10 22:30N 57°39' E 011°51'0 0.0
2017-Apr-10 22:00N 57°39' E 011°52'0 0.0
2017-Apr-10 21:30N 57°39' E 011°52'0 0.0
2017-Apr-10 20:42N 57°39' E 011°52'0 0.1
2017-Apr-10 20:30N 57°39' E 011°52'0 0.0
2017-Apr-10 20:00N 57°39' E 011°52'0 0.0
2017-Apr-10 19:30N 57°39' E 011°52'0 0.0
2017-Apr-10 19:00N 57°39' E 011°52'0 0.0
2017-Apr-10 18:30N 57°39' E 011°52'0 0.0
2017-Apr-10 18:00N 57°39' E 011°52'0 0.0
2017-Apr-10 17:30N 57°39' E 011°52'0 0.0
2017-Apr-10 17:00N 57°39' E 011°52'0 0.0
2017-Apr-10 16:30N 57°39' E 011°52'0 0.0
2017-Apr-10 16:00N 57°39' E 011°52'0 0.0
2017-Apr-10 15:30N 57°39' E 011°52'0 0.1
2017-Apr-10 15:00N 57°39' E 011°51'0 0.0
2017-Apr-10 14:00N 57°39' E 011°52'0 0.0
2017-Apr-10 13:30N 57°39' E 011°52'0 0.0
2017-Apr-10 13:00N 57°39' E 011°52'0 0.0
2017-Apr-10 12:10N 57°39' E 011°52'0 0.0
2017-Apr-10 12:00N 57°39' E 011°52'0 0.0
2017-Apr-10 11:30N 57°39' E 011°52'0 0.0
2017-Apr-10 11:00N 57°39' E 011°52'0 0.0
2017-Apr-10 10:30N 57°39' E 011°52'0 0.0
2017-Apr-10 10:00N 57°39' E 011°52'0 0.0
2017-Apr-10 09:27N 57°39' E 011°52'0 0.0
2017-Apr-10 09:00N 57°39' E 011°52'0 0.0
2017-Apr-10 08:30N 57°39' E 011°52'0 0.0
2017-Apr-10 08:00N 57°39' E 011°52'0 0.0
2017-Apr-10 07:30N 57°39' E 011°52'0 0.0
2017-Apr-10 07:00N 57°39' E 011°52'0 0.0
2017-Apr-10 06:30N 57°39' E 011°52'0 0.0
2017-Apr-10 06:00N 57°39' E 011°52'0 0.0
2017-Apr-10 05:30N 57°39' E 011°52'0 0.0
2017-Apr-10 05:00N 57°39' E 011°52'0 0.0
2017-Apr-10 04:30N 57°39' E 011°52'0 0.0
2017-Apr-10 04:00N 57°39' E 011°52'0 0.0
2017-Apr-10 03:30N 57°39' E 011°52'0 0.0
2017-Apr-10 03:00N 57°39' E 011°52'0 0.0
2017-Apr-10 02:30N 57°39' E 011°52'0 0.0
2017-Apr-10 01:49N 57°39' E 011°51'0 0.1
2017-Apr-10 01:30N 57°39' E 011°52'0 0.0
2017-Apr-10 01:00N 57°39' E 011°52'0 0.0
2017-Apr-10 00:30N 57°39' E 011°52'0 0.0
2017-Apr-10 00:00N 57°39' E 011°52'0 0.0
2017-Apr-09 23:30N 57°39' E 011°52'0 0.0
2017-Apr-09 23:00N 57°39' E 011°52'0 0.0
2017-Apr-09 22:30N 57°39' E 011°51'0 0.0
2017-Apr-09 22:00N 57°39' E 011°52'0 0.0
2017-Apr-09 21:30N 57°39' E 011°52'0 0.2
2017-Apr-09 21:00N 57°39' E 011°52'0 0.2
2017-Apr-09 20:30N 57°39' E 011°52'0 0.0
2017-Apr-09 20:00N 57°39' E 011°52'0 0.0
2017-Apr-09 19:30N 57°39' E 011°52'0 0.0
2017-Apr-09 19:00N 57°39' E 011°52'0 0.0
2017-Apr-09 18:30N 57°39' E 011°52'0 0.0
2017-Apr-09 18:00N 57°39' E 011°52'0 0.0
2017-Apr-09 17:31N 57°39' E 011°52'0 0.0
2017-Apr-09 17:01N 57°39' E 011°52'0 0.0
2017-Apr-09 16:31N 57°39' E 011°52'0 0.0
2017-Apr-09 16:01N 57°39' E 011°52'0 0.1
2017-Apr-09 15:31N 57°39' E 011°52'0 0.2
2017-Apr-09 15:01N 57°39' E 011°51'0 0.0
2017-Apr-09 14:00N 57°39' E 011°52'0 0.0
2017-Apr-09 13:31N 57°39' E 011°52'0 0.0
2017-Apr-09 13:01N 57°39' E 011°52'0 0.2
2017-Apr-09 12:31N 57°39' E 011°52'0 0.2
2017-Apr-09 12:00N 57°39' E 011°52'0 0.0
2017-Apr-09 11:30N 57°39' E 011°52'0 0.0
2017-Apr-09 11:00N 57°39' E 011°52'0 0.0
2017-Apr-09 10:30N 57°39' E 011°52'0 0.0
2017-Apr-09 10:00N 57°39' E 011°52'0 0.0
2017-Apr-09 09:30N 57°39' E 011°52'0 0.0
2017-Apr-09 09:00N 57°39' E 011°52'0 0.0
2017-Apr-09 08:30N 57°39' E 011°52'0 0.0
2017-Apr-09 08:00N 57°39' E 011°52'0 0.0
2017-Apr-09 07:30N 57°39' E 011°52'0 0.0
2017-Apr-09 07:00N 57°39' E 011°52'0 0.0
2017-Apr-09 06:30N 57°39' E 011°52'0 0.0
2017-Apr-09 06:00N 57°39' E 011°52'0 0.0
2017-Apr-09 05:30N 57°39' E 011°52'0 0.0
2017-Apr-09 04:51N 57°39' E 011°52'0 0.0
2017-Apr-09 04:30N 57°39' E 011°52'0 0.0
2017-Apr-09 04:00N 57°39' E 011°52'0 0.1
2017-Apr-09 03:30N 57°39' E 011°51'0 0.1
2017-Apr-09 03:00N 57°39' E 011°52'0 0.1
2017-Apr-09 02:30N 57°39' E 011°52'0 0.1
2017-Apr-09 01:53N 57°39' E 011°51'0 0.1
2017-Apr-09 01:30N 57°39' E 011°52'0 0.0
2017-Apr-09 00:41N 57°39' E 011°52'0 0.0
2017-Apr-09 00:30N 57°39' E 011°52'0 0.0
2017-Apr-09 00:00N 57°39' E 011°52'0 0.0
2017-Apr-08 23:30N 57°39' E 011°52'0 0.0
2017-Apr-08 23:00N 57°39' E 011°52'0 0.0
2017-Apr-08 22:30N 57°39' E 011°52'0 0.0
2017-Apr-08 22:00N 57°39' E 011°52'0 0.0
2017-Apr-08 21:30N 57°39' E 011°52'0 0.0
2017-Apr-08 20:50N 57°39' E 011°52'0 0.1
2017-Apr-08 20:30N 57°39' E 011°52'0 0.0
2017-Apr-08 20:00N 57°39' E 011°52'0 0.0
2017-Apr-08 19:30N 57°39' E 011°52'0 0.0
2017-Apr-08 19:00N 57°39' E 011°52'0 0.0
2017-Apr-08 18:30N 57°39' E 011°52'0 0.0
2017-Apr-08 18:01N 57°39' E 011°52'0 0.0
2017-Apr-08 17:31N 57°39' E 011°52'0 0.0
2017-Apr-08 17:01N 57°39' E 011°52'0 0.0
2017-Apr-08 16:31N 57°39' E 011°52'0 0.0
2017-Apr-08 16:01N 57°39' E 011°52'0 0.0
2017-Apr-08 15:25N 57°39' E 011°52'0 0.0
2017-Apr-08 15:01N 57°39' E 011°52'0 0.0
2017-Apr-08 14:01N 57°39' E 011°52'  
Track history (hours):
 
Tides and Currents Weather Stations Pressure Air Temp Water Temp Dewpoint Dewpoint Depression Visibility Wind Speed Wind Dir Waves Ship Positions

Oceanographic research ship Skagerak (Sweden)

Detailed information on ship capabilities available from University of Delaware's Ocean Information Center.

Last reported at 2017-Apr-18 13:54 UTC. Time now 2017-Apr-26 09:58 UTC.
Position N 55°36' E 015°18'.

Length 38 m; draft 3.8 m.

Type: Dredging. MMSI: 265280000.

Date/timePositionNaut miles runAvg speedWind from/ knotsBaromVisibWave heightAir tempDewpointWater temp
2017-Apr-18 13:54N 55°36' E 015°18'4 8.7
2017-Apr-18 13:28N 55°34' E 015°12'4 8.6
2017-Apr-18 13:00N 55°33' E 015°06'4 8.5
2017-Apr-18 12:30N 55°31' E 014°59'4 8.6
2017-Apr-18 12:00N 55°29' E 014°52'4 8.6
2017-Apr-18 11:30N 55°27' E 014°45'4 8.4
2017-Apr-18 11:00N 55°25' E 014°39'4 8.4
2017-Apr-18 10:30N 55°22' E 014°34'4 8.2
2017-Apr-18 10:00N 55°19' E 014°29'4 8.6
2017-Apr-18 09:30N 55°15' E 014°25'4 8.8
2017-Apr-18 09:00N 55°12' E 014°20'4 8.5
2017-Apr-18 08:29N 55°10' E 014°13'4 9.0
2017-Apr-18 08:01N 55°10' E 014°05'5 8.7
2017-Apr-18 07:29N 55°10' E 013°57'32 8.7
2017-Apr-18 03:46N 55°13' E 013°01'3 8.2
2017-Apr-18 03:26N 55°15' E 012°57'5 8.9
2017-Apr-18 02:50N 55°16' E 012°48'3 9.2
2017-Apr-18 02:30N 55°17' E 012°43'4 8.0
2017-Apr-18 02:00N 55°20' E 012°38'5 9.8
2017-Apr-18 01:30N 55°25' E 012°40'5 9.8
2017-Apr-18 01:00N 55°30' E 012°43'5 9.1
2017-Apr-18 00:31N 55°33' E 012°48'4 7.9
2017-Apr-18 00:00N 55°36' E 012°52'4 8.3
2017-Apr-17 23:31N 55°40' E 012°56'5 9.6
2017-Apr-17 23:00N 55°44' E 012°51'5 9.2
2017-Apr-17 22:31N 55°48' E 012°47'5 9.2
2017-Apr-17 22:01N 55°53' E 012°45'5 9.2
2017-Apr-17 21:31N 55°57' E 012°42'4 9.0
2017-Apr-17 21:01N 56°01' E 012°40'4 7.5
2017-Apr-17 20:31N 56°05' E 012°36'3 6.8
2017-Apr-17 20:00N 56°07' E 012°32'3 6.8
2017-Apr-17 19:30N 56°10' E 012°30'65 9.4
2017-Apr-17 12:40N 57°12' E 011°59'4 8.7
2017-Apr-17 12:11N 57°16' E 011°57'2 8.8
2017-Apr-17 11:55N 57°19' E 011°56'4 9.2
2017-Apr-17 11:28N 57°23' E 011°53'410.0
2017-Apr-17 11:01N 57°27' E 011°51'510.2
2017-Apr-17 10:31N 57°32' E 011°49'5 9.7
2017-Apr-17 10:00N 57°37' E 011°49'4 8.6
2017-Apr-17 09:31N 57°41' E 011°50'4 7.2
2017-Apr-17 09:01N 57°42' E 011°57'0 0.0
2017-Apr-17 08:31N 57°42' E 011°57'0 0.0
2017-Apr-17 08:01N 57°42' E 011°57'0 0.1
2017-Apr-17 07:31N 57°42' E 011°57'5 9.1
2017-Apr-17 07:01N 57°41' E 011°49'2 4.9
2017-Apr-17 06:31N 57°39' E 011°52'0 0.0
2017-Apr-17 06:01N 57°39' E 011°52'0 0.0
2017-Apr-17 05:31N 57°39' E 011°52'0 0.0
2017-Apr-17 05:00N 57°39' E 011°52'0 0.0
2017-Apr-17 04:31N 57°39' E 011°52'0 0.0
2017-Apr-17 04:00N 57°39' E 011°52'0 0.0
2017-Apr-17 03:30N 57°39' E 011°52'0 0.0
2017-Apr-17 03:00N 57°39' E 011°52'0 0.0
2017-Apr-17 02:30N 57°39' E 011°52'0 0.0
2017-Apr-17 02:00N 57°39' E 011°52'0 0.0
2017-Apr-17 01:27N 57°39' E 011°52'0 0.0
2017-Apr-17 01:00N 57°39' E 011°52'0 0.0
2017-Apr-17 00:30N 57°39' E 011°52'0 0.0
2017-Apr-17 00:00N 57°39' E 011°52'0 0.0
2017-Apr-16 23:30N 57°39' E 011°52'0 0.0
2017-Apr-16 23:00N 57°39' E 011°52'0 0.0
2017-Apr-16 22:30N 57°39' E 011°52'0 0.0
2017-Apr-16 22:00N 57°39' E 011°52'0 0.0
2017-Apr-16 21:30N 57°39' E 011°52'0 0.0
2017-Apr-16 21:00N 57°39' E 011°52'0 0.0
2017-Apr-16 20:22N 57°39' E 011°52'0 0.0
2017-Apr-16 20:00N 57°39' E 011°52'0 0.0
2017-Apr-16 19:30N 57°39' E 011°52'0 0.0
2017-Apr-16 19:00N 57°39' E 011°52'0 0.0
2017-Apr-16 18:28N 57°39' E 011°52'0 0.0
2017-Apr-16 18:00N 57°39' E 011°52'0 0.0
2017-Apr-16 17:31N 57°39' E 011°52'0 0.0
2017-Apr-16 17:01N 57°39' E 011°52'0 0.0
2017-Apr-16 16:31N 57°39' E 011°52'0 0.0
2017-Apr-16 16:00N 57°39' E 011°52'0 0.0
2017-Apr-16 15:30N 57°39' E 011°52'0 0.4
2017-Apr-16 14:53N 57°39' E 011°51'0 0.3
2017-Apr-16 14:01N 57°39' E 011°52'0 0.0
2017-Apr-16 13:30N 57°39' E 011°52'0 0.0
2017-Apr-16 13:01N 57°39' E 011°52'0 0.0
2017-Apr-16 12:31N 57°39' E 011°52'0 0.2
2017-Apr-16 12:01N 57°39' E 011°52'0 0.2
2017-Apr-16 11:30N 57°39' E 011°52'0 0.0
2017-Apr-16 11:00N 57°39' E 011°52'0 0.0
2017-Apr-16 10:30N 57°39' E 011°52'0 0.0
2017-Apr-16 10:00N 57°39' E 011°52'0 0.0
2017-Apr-16 09:31N 57°39' E 011°52'0 0.0
2017-Apr-16 09:00N 57°39' E 011°52'0 0.0
2017-Apr-16 08:30N 57°39' E 011°52'0 0.0
2017-Apr-16 08:00N 57°39' E 011°52'0 0.0
2017-Apr-16 07:30N 57°39' E 011°52'0 0.0
2017-Apr-16 07:00N 57°39' E 011°52'0 0.0
2017-Apr-16 06:30N 57°39' E 011°52'0 0.0
2017-Apr-16 06:00N 57°39' E 011°52'0 0.0
2017-Apr-16 05:30N 57°39' E 011°52'0 0.0
2017-Apr-16 05:00N 57°39' E 011°52'0 0.0
2017-Apr-16 04:30N 57°39' E 011°52'0 0.0
2017-Apr-16 04:00N 57°39' E 011°52'0 0.0
2017-Apr-16 03:30N 57°39' E 011°52'0 0.1
2017-Apr-16 03:01N 57°39' E 011°51'0 0.1
2017-Apr-16 02:31N 57°39' E 011°52'0 0.1
2017-Apr-16 02:01N 57°39' E 011°52'0 0.1
2017-Apr-16 01:30N 57°39' E 011°52'0 0.1
2017-Apr-16 01:00N 57°39' E 011°52'0 0.0
2017-Apr-16 00:31N 57°39' E 011°52'0 0.0
2017-Apr-16 00:00N 57°39' E 011°52'0 0.0
2017-Apr-15 23:31N 57°39' E 011°52'0 0.0
2017-Apr-15 23:01N 57°39' E 011°52'0 0.1
2017-Apr-15 22:31N 57°39' E 011°52'0 0.1
2017-Apr-15 22:00N 57°39' E 011°52'0 0.0
2017-Apr-15 21:30N 57°39' E 011°52'0 0.0
2017-Apr-15 21:00N 57°39' E 011°52'0 0.0
2017-Apr-15 20:19N 57°39' E 011°52'0 0.0
2017-Apr-15 20:00N 57°39' E 011°52'0 0.0
2017-Apr-15 19:30N 57°39' E 011°52'0 0.0
2017-Apr-15 19:00N 57°39' E 011°52'0 0.0
2017-Apr-15 18:30N 57°39' E 011°52'0 0.0
2017-Apr-15 18:00N 57°39' E 011°52'0 0.0
2017-Apr-15 17:30N 57°39' E 011°52'0 0.0
2017-Apr-15 17:00N 57°39' E 011°52'0 0.0
2017-Apr-15 16:30N 57°39' E 011°52'0 0.0
2017-Apr-15 16:00N 57°39' E 011°52'0 0.0
2017-Apr-15 15:30N 57°39' E 011°52'0 0.0
2017-Apr-15 15:00N 57°39' E 011°52'0 0.0
2017-Apr-15 14:30N 57°39' E 011°52'0 0.0
2017-Apr-15 13:30N 57°39' E 011°52'0 0.0
2017-Apr-15 13:00N 57°39' E 011°52'0 0.0
2017-Apr-15 12:30N 57°39' E 011°52'0 0.0
2017-Apr-15 11:45N 57°39' E 011°52'0 0.0
2017-Apr-15 11:30N 57°39' E 011°52'0 0.0
2017-Apr-15 11:00N 57°39' E 011°52'0 0.0
2017-Apr-15 10:30N 57°39' E 011°52'0 0.0
2017-Apr-15 10:00N 57°39' E 011°52'0 0.0
2017-Apr-15 09:30N 57°39' E 011°52'0 0.0
2017-Apr-15 09:00N 57°39' E 011°52'0 0.0
2017-Apr-15 08:30N 57°39' E 011°52'0 0.0
2017-Apr-15 08:00N 57°39' E 011°52'0 0.0
2017-Apr-15 07:30N 57°39' E 011°52'0 0.0
2017-Apr-15 07:00N 57°39' E 011°52'0 0.0
2017-Apr-15 06:30N 57°39' E 011°52'0 0.0
2017-Apr-15 06:00N 57°39' E 011°52'0 0.0
2017-Apr-15 05:30N 57°39' E 011°52'0 0.0
2017-Apr-15 05:00N 57°39' E 011°52'0 0.1
2017-Apr-15 04:30N 57°39' E 011°52'0 0.1
2017-Apr-15 04:00N 57°39' E 011°52'0 0.0
2017-Apr-15 03:30N 57°39' E 011°52'0 0.0
2017-Apr-15 03:00N 57°39' E 011°52'0 0.0
2017-Apr-15 02:30N 57°39' E 011°52'0 0.1
2017-Apr-15 02:00N 57°39' E 011°52'0 0.1
2017-Apr-15 01:30N 57°39' E 011°52'0 0.1
2017-Apr-15 01:00N 57°39' E 011°52'0 0.0
2017-Apr-15 00:30N 57°39' E 011°52'0 0.0
2017-Apr-15 00:00N 57°39' E 011°52'0 0.0
2017-Apr-14 23:30N 57°39' E 011°52'0 0.0
2017-Apr-14 23:00N 57°39' E 011°52'0 0.3
2017-Apr-14 22:30N 57°39' E 011°51'0 0.3
2017-Apr-14 22:00N 57°39' E 011°52'0 0.0
2017-Apr-14 21:31N 57°39' E 011°52'0 0.1
2017-Apr-14 21:00N 57°39' E 011°51'0 0.1
2017-Apr-14 20:24N 57°39' E 011°52'0 0.0
2017-Apr-14 20:00N 57°39' E 011°52'0 0.0
2017-Apr-14 19:30N 57°39' E 011°52'0 0.0
2017-Apr-14 19:00N 57°39' E 011°52'0 0.0
2017-Apr-14 18:23N 57°39' E 011°52'0 0.0
2017-Apr-14 18:01N 57°39' E 011°52'0 0.0
2017-Apr-14 17:30N 57°39' E 011°52'0 0.0
2017-Apr-14 17:00N 57°39' E 011°52'0 0.0
2017-Apr-14 16:31N 57°39' E 011°52'0 0.0
2017-Apr-14 16:00N 57°39' E 011°52'0 0.0
2017-Apr-14 15:31N 57°39' E 011°52'0 0.0
2017-Apr-14 14:58N 57°39' E 011°52'0 0.0
2017-Apr-14 14:30N 57°39' E 011°52'0 0.0
2017-Apr-14 13:30N 57°39' E 011°52'0 0.0
2017-Apr-14 13:01N 57°39' E 011°52'0 0.0
2017-Apr-14 12:30N 57°39' E 011°52'0 0.2
2017-Apr-14 11:57N 57°39' E 011°52'0 0.2
2017-Apr-14 11:30N 57°39' E 011°52'0 0.0
2017-Apr-14 11:00N 57°39' E 011°52'0 0.0
2017-Apr-14 10:30N 57°39' E 011°52'0 0.0
2017-Apr-14 10:00N 57°39' E 011°52'0 0.0
2017-Apr-14 09:30N 57°39' E 011°52'0 0.0
2017-Apr-14 09:00N 57°39' E 011°52'0 0.0
2017-Apr-14 08:30N 57°39' E 011°52'0 0.0
2017-Apr-14 08:00N 57°39' E 011°52'0 0.0
2017-Apr-14 07:30N 57°39' E 011°52'0 0.0
2017-Apr-14 07:00N 57°39' E 011°52'0 0.0
2017-Apr-14 06:30N 57°39' E 011°52'0 0.0
2017-Apr-14 06:00N 57°39' E 011°52'0 0.0
2017-Apr-14 05:30N 57°39' E 011°52'0 0.0
2017-Apr-14 05:00N 57°39' E 011°52'0 0.1
2017-Apr-14 04:30N 57°39' E 011°52'0 0.1
2017-Apr-14 04:00N 57°39' E 011°52'0 0.0
2017-Apr-14 03:30N 57°39' E 011°52'0 0.0
2017-Apr-14 03:00N 57°39' E 011°52'0 0.0
2017-Apr-14 02:30N 57°39' E 011°52'0 0.0
2017-Apr-14 01:32N 57°39' E 011°52'0 0.0
2017-Apr-14 01:30N 57°39' E 011°52'0 0.0
2017-Apr-14 01:00N 57°39' E 011°52'0 0.0
2017-Apr-14 00:30N 57°39' E 011°52'0 0.0
2017-Apr-14 00:01N 57°39' E 011°52'0 0.0
2017-Apr-13 23:31N 57°39' E 011°52'0 0.0
2017-Apr-13 23:00N 57°39' E 011°52'0 0.1
2017-Apr-13 22:31N 57°39' E 011°51'0 0.1
2017-Apr-13 22:01N 57°39' E 011°51'0 0.1
2017-Apr-13 21:31N 57°39' E 011°52'0 0.0
2017-Apr-13 20:56N 57°39' E 011°52'0 0.0
2017-Apr-13 20:31N 57°39' E 011°52'0 0.0
2017-Apr-13 20:00N 57°39' E 011°52'0 0.0
2017-Apr-13 19:31N 57°39' E 011°52'0 0.0
2017-Apr-13 19:01N 57°39' E 011°52'0 0.0
2017-Apr-13 18:24N 57°39' E 011°52'0 0.0
2017-Apr-13 18:00N 57°39' E 011°52'0 0.0
2017-Apr-13 17:30N 57°39' E 011°52'0 0.0
2017-Apr-13 17:00N 57°39' E 011°52'0 0.0
2017-Apr-13 16:30N 57°39' E 011°52'0 0.0
2017-Apr-13 16:00N 57°39' E 011°52'0 0.0
2017-Apr-13 15:30N 57°39' E 011°52'0 0.0
2017-Apr-13 15:00N 57°39' E 011°52'0 0.0
2017-Apr-13 14:30N 57°39' E 011°52'0 0.0
2017-Apr-13 13:31N 57°39' E 011°52'0 0.0
2017-Apr-13 13:00N 57°39' E 011°52'0 0.0
2017-Apr-13 12:31N 57°39' E 011°52'0 0.0
2017-Apr-13 11:57N 57°39' E 011°52'0 0.0
2017-Apr-13 11:30N 57°39' E 011°52'0 0.0
2017-Apr-13 11:01N 57°39' E 011°52'0 0.0
2017-Apr-13 10:30N 57°39' E 011°52'0 0.0
2017-Apr-13 10:01N 57°39' E 011°52'0 0.0
2017-Apr-13 09:31N 57°39' E 011°52'0 0.0
2017-Apr-13 09:01N 57°39' E 011°52'0 0.0
2017-Apr-13 08:31N 57°39' E 011°52'0 0.0
2017-Apr-13 08:01N 57°39' E 011°52'0 0.0
2017-Apr-13 07:31N 57°39' E 011°52'0 0.0
2017-Apr-13 07:01N 57°39' E 011°52'0 0.0
2017-Apr-13 06:30N 57°39' E 011°52'0 0.0
2017-Apr-13 06:01N 57°39' E 011°52'0 0.0
2017-Apr-13 05:31N 57°39' E 011°52'0 0.0
2017-Apr-13 05:01N 57°39' E 011°52'0 0.0
2017-Apr-13 04:30N 57°39' E 011°52'0 0.0
2017-Apr-13 04:01N 57°39' E 011°52'0 0.0
2017-Apr-13 03:31N 57°39' E 011°52'0 0.0
2017-Apr-13 03:01N 57°39' E 011°52'0 0.0
2017-Apr-13 02:30N 57°39' E 011°52'0 0.1
2017-Apr-13 02:01N 57°39' E 011°51'0 0.1
2017-Apr-13 01:30N 57°39' E 011°52'0 0.0
2017-Apr-13 01:01N 57°39' E 011°52'0 0.0
2017-Apr-13 00:23N 57°39' E 011°52'0 0.0
2017-Apr-13 00:00N 57°39' E 011°52'0 0.0
2017-Apr-12 23:30N 57°39' E 011°52'0 0.0
2017-Apr-12 23:00N 57°39' E 011°52'0 0.0
2017-Apr-12 22:30N 57°39' E 011°52'0 0.0
2017-Apr-12 22:00N 57°39' E 011°52'0 0.0
2017-Apr-12 21:30N 57°39' E 011°52'0 0.0
2017-Apr-12 20:59N 57°39' E 011°52'0 0.0
2017-Apr-12 20:31N 57°39' E 011°52'0 0.0
2017-Apr-12 20:01N 57°39' E 011°52'0 0.0
2017-Apr-12 19:31N 57°39' E 011°52'0 0.0
2017-Apr-12 19:01N 57°39' E 011°52'0 0.0
2017-Apr-12 18:30N 57°39' E 011°52'0 0.0
2017-Apr-12 18:00N 57°39' E 011°52'0 0.0
2017-Apr-12 17:31N 57°39' E 011°52'0 0.0
2017-Apr-12 17:00N 57°39' E 011°52'0 0.0
2017-Apr-12 16:30N 57°39' E 011°52'0 0.0
2017-Apr-12 16:01N 57°39' E 011°52'0 0.0
2017-Apr-12 15:31N 57°39' E 011°52'0 0.0
2017-Apr-12 15:01N 57°39' E 011°52'0 0.0
2017-Apr-12 14:00N 57°39' E 011°52'0 0.0
2017-Apr-12 13:30N 57°39' E 011°52'0 0.0
2017-Apr-12 13:00N 57°39' E 011°52'0 0.1
2017-Apr-12 12:30N 57°39' E 011°52'0 0.1
2017-Apr-12 12:00N 57°39' E 011°52'0 0.0
2017-Apr-12 11:31N 57°39' E 011°52'0 0.0
2017-Apr-12 11:00N 57°39' E 011°52'0 0.0
2017-Apr-12 10:31N 57°39' E 011°52'0 0.0
2017-Apr-12 10:01N 57°39' E 011°52'0 0.0
2017-Apr-12 09:30N 57°39' E 011°52'0 0.0
2017-Apr-12 09:00N 57°39' E 011°52'0 0.0
2017-Apr-12 08:30N 57°39' E 011°52'0 0.0
2017-Apr-12 08:01N 57°39' E 011°52'0 0.0
2017-Apr-12 07:31N 57°39' E 011°52'0 0.0
2017-Apr-12 07:01N 57°39' E 011°52'0 0.0
2017-Apr-12 06:30N 57°39' E 011°52'0 0.0
2017-Apr-12 06:01N 57°39' E 011°52'0 0.0
2017-Apr-12 05:30N 57°39' E 011°52'0 0.0
2017-Apr-12 05:01N 57°39' E 011°52'0 0.0
2017-Apr-12 04:31N 57°39' E 011°52'0 0.0
2017-Apr-12 04:00N 57°39' E 011°52'0 0.0
2017-Apr-12 03:31N 57°39' E 011°52'0 0.0
2017-Apr-12 03:01N 57°39' E 011°52'0 0.0
2017-Apr-12 02:31N 57°39' E 011°52'0 0.1
2017-Apr-12 02:00N 57°39' E 011°52'0 0.1
2017-Apr-12 01:31N 57°39' E 011°52'0 0.0
2017-Apr-12 01:01N 57°39' E 011°52'0 0.0
2017-Apr-12 00:17N 57°39' E 011°52'0 0.0
2017-Apr-12 00:01N 57°39' E 011°52'0 0.0
2017-Apr-11 23:30N 57°39' E 011°52'0 0.0
2017-Apr-11 23:00N 57°39' E 011°52'0 0.0
2017-Apr-11 22:30N 57°39' E 011°52'0 0.0
2017-Apr-11 22:01N 57°39' E 011°52'0 0.0
2017-Apr-11 21:30N 57°39' E 011°52'0 0.0
2017-Apr-11 21:00N 57°39' E 011°52'0 0.0
2017-Apr-11 20:30N 57°39' E 011°52'0 0.0
2017-Apr-11 20:01N 57°39' E 011°52'0 0.0
2017-Apr-11 19:30N 57°39' E 011°52'0 0.0
2017-Apr-11 19:00N 57°39' E 011°52'0 0.0
2017-Apr-11 18:30N 57°39' E 011°52'0 0.0
2017-Apr-11 18:01N 57°39' E 011°52'0 0.0
2017-Apr-11 17:31N 57°39' E 011°52'0 0.0
2017-Apr-11 17:01N 57°39' E 011°52'0 0.0
2017-Apr-11 16:30N 57°39' E 011°52'0 0.0
2017-Apr-11 16:01N 57°39' E 011°52'0 0.0
2017-Apr-11 15:31N 57°39' E 011°52'0 0.0
2017-Apr-11 14:57N 57°39' E 011°52'0 0.0
2017-Apr-11 14:30N 57°39' E 011°52'0 0.0
2017-Apr-11 13:30N 57°39' E 011°52'0 0.0
2017-Apr-11 13:01N 57°39' E 011°52'0 0.0
2017-Apr-11 12:31N 57°39' E 011°52'0 0.0
2017-Apr-11 12:01N 57°39' E 011°52'0 0.0
2017-Apr-11 11:31N 57°39' E 011°52'0 0.0
2017-Apr-11 11:01N 57°39' E 011°52'0 0.0
2017-Apr-11 10:31N 57°39' E 011°52'0 0.0
2017-Apr-11 10:01N 57°39' E 011°52'0 0.0
2017-Apr-11 09:31N 57°39' E 011°52'0 0.0
2017-Apr-11 09:00N 57°39' E 011°52'0 0.0
2017-Apr-11 08:31N 57°39' E 011°52'0 0.0
2017-Apr-11 08:00N 57°39' E 011°52'0 0.0
2017-Apr-11 07:30N 57°39' E 011°52'0 0.0
2017-Apr-11 07:00N 57°39' E 011°52'0 0.0
2017-Apr-11 06:30N 57°39' E 011°52'0 0.0
2017-Apr-11 06:00N 57°39' E 011°52'0 0.0
2017-Apr-11 05:30N 57°39' E 011°52'0 0.0
2017-Apr-11 05:00N 57°39' E 011°52'0 0.0
2017-Apr-11 04:30N 57°39' E 011°52'0 0.0
2017-Apr-11 04:00N 57°39' E 011°52'0 0.0
2017-Apr-11 03:30N 57°39' E 011°52'0 0.0
2017-Apr-11 03:00N 57°39' E 011°52'0 0.0
2017-Apr-11 02:30N 57°39' E 011°52'0 0.1
2017-Apr-11 02:00N 57°39' E 011°52'0 0.1
2017-Apr-11 01:30N 57°39' E 011°52'0 0.0
2017-Apr-11 01:00N 57°39' E 011°52'0 0.0
2017-Apr-11 00:28N 57°39' E 011°52'0 0.0
2017-Apr-11 00:00N 57°39' E 011°52'0 0.0
2017-Apr-10 23:30N 57°39' E 011°52'0 0.0
2017-Apr-10 23:00N 57°39' E 011°52'0 0.0
2017-Apr-10 22:30N 57°39' E 011°51'0 0.0
2017-Apr-10 22:00N 57°39' E 011°52'0 0.0
2017-Apr-10 21:30N 57°39' E 011°52'0 0.0
2017-Apr-10 20:42N 57°39' E 011°52'0 0.1
2017-Apr-10 20:30N 57°39' E 011°52'0 0.0
2017-Apr-10 20:00N 57°39' E 011°52'0 0.0
2017-Apr-10 19:30N 57°39' E 011°52'0 0.0
2017-Apr-10 19:00N 57°39' E 011°52'0 0.0
2017-Apr-10 18:30N 57°39' E 011°52'0 0.0
2017-Apr-10 18:00N 57°39' E 011°52'0 0.0
2017-Apr-10 17:30N 57°39' E 011°52'0 0.0
2017-Apr-10 17:00N 57°39' E 011°52'0 0.0
2017-Apr-10 16:30N 57°39' E 011°52'0 0.0
2017-Apr-10 16:00N 57°39' E 011°52'0 0.0
2017-Apr-10 15:30N 57°39' E 011°52'0 0.1
2017-Apr-10 15:00N 57°39' E 011°51'0 0.0
2017-Apr-10 14:00N 57°39' E 011°52'0 0.0
2017-Apr-10 13:30N 57°39' E 011°52'0 0.0
2017-Apr-10 13:00N 57°39' E 011°52'0 0.0
2017-Apr-10 12:10N 57°39' E 011°52'0 0.0
2017-Apr-10 12:00N 57°39' E 011°52'0 0.0
2017-Apr-10 11:30N 57°39' E 011°52'0 0.0
2017-Apr-10 11:00N 57°39' E 011°52'0 0.0
2017-Apr-10 10:30N 57°39' E 011°52'0 0.0
2017-Apr-10 10:00N 57°39' E 011°52'0 0.0
2017-Apr-10 09:27N 57°39' E 011°52'0 0.0
2017-Apr-10 09:00N 57°39' E 011°52'0 0.0
2017-Apr-10 08:30N 57°39' E 011°52'0 0.0
2017-Apr-10 08:00N 57°39' E 011°52'0 0.0
2017-Apr-10 07:30N 57°39' E 011°52'0 0.0
2017-Apr-10 07:00N 57°39' E 011°52'0 0.0
2017-Apr-10 06:30N 57°39' E 011°52'0 0.0
2017-Apr-10 06:00N 57°39' E 011°52'0 0.0
2017-Apr-10 05:30N 57°39' E 011°52'0 0.0
2017-Apr-10 05:00N 57°39' E 011°52'0 0.0
2017-Apr-10 04:30N 57°39' E 011°52'0 0.0
2017-Apr-10 04:00N 57°39' E 011°52'0 0.0
2017-Apr-10 03:30N 57°39' E 011°52'0 0.0
2017-Apr-10 03:00N 57°39' E 011°52'0 0.0
2017-Apr-10 02:30N 57°39' E 011°52'0 0.0
2017-Apr-10 01:49N 57°39' E 011°51'0 0.1
2017-Apr-10 01:30N 57°39' E 011°52'0 0.0
2017-Apr-10 01:00N 57°39' E 011°52'0 0.0
2017-Apr-10 00:30N 57°39' E 011°52'0 0.0
2017-Apr-10 00:00N 57°39' E 011°52'0 0.0
2017-Apr-09 23:30N 57°39' E 011°52'0 0.0
2017-Apr-09 23:00N 57°39' E 011°52'0 0.0
2017-Apr-09 22:30N 57°39' E 011°51'0 0.0
2017-Apr-09 22:00N 57°39' E 011°52'0 0.0
2017-Apr-09 21:30N 57°39' E 011°52'0 0.2
2017-Apr-09 21:00N 57°39' E 011°52'0 0.2
2017-Apr-09 20:30N 57°39' E 011°52'0 0.0
2017-Apr-09 20:00N 57°39' E 011°52'0 0.0
2017-Apr-09 19:30N 57°39' E 011°52'0 0.0
2017-Apr-09 19:00N 57°39' E 011°52'0 0.0
2017-Apr-09 18:30N 57°39' E 011°52'0 0.0
2017-Apr-09 18:00N 57°39' E 011°52'0 0.0
2017-Apr-09 17:31N 57°39' E 011°52'0 0.0
2017-Apr-09 17:01N 57°39' E 011°52'0 0.0
2017-Apr-09 16:31N 57°39' E 011°52'0 0.0
2017-Apr-09 16:01N 57°39' E 011°52'0 0.1
2017-Apr-09 15:31N 57°39' E 011°52'0 0.2
2017-Apr-09 15:01N 57°39' E 011°51'0 0.0
2017-Apr-09 14:00N 57°39' E 011°52'0 0.0
2017-Apr-09 13:31N 57°39' E 011°52'0 0.0
2017-Apr-09 13:01N 57°39' E 011°52'0 0.2
2017-Apr-09 12:31N 57°39' E 011°52'0 0.2
2017-Apr-09 12:00N 57°39' E 011°52'0 0.0
2017-Apr-09 11:30N 57°39' E 011°52'0 0.0
2017-Apr-09 11:00N 57°39' E 011°52'0 0.0
2017-Apr-09 10:30N 57°39' E 011°52'0 0.0
2017-Apr-09 10:00N 57°39' E 011°52'0 0.0
2017-Apr-09 09:30N 57°39' E 011°52'0 0.0
2017-Apr-09 09:00N 57°39' E 011°52'0 0.0
2017-Apr-09 08:30N 57°39' E 011°52'0 0.0
2017-Apr-09 08:00N 57°39' E 011°52'0 0.0
2017-Apr-09 07:30N 57°39' E 011°52'0 0.0
2017-Apr-09 07:00N 57°39' E 011°52'0 0.0
2017-Apr-09 06:30N 57°39' E 011°52'0 0.0
2017-Apr-09 06:00N 57°39' E 011°52'0 0.0
2017-Apr-09 05:30N 57°39' E 011°52'0 0.0
2017-Apr-09 04:51N 57°39' E 011°52'0 0.0
2017-Apr-09 04:30N 57°39' E 011°52'0 0.0
2017-Apr-09 04:00N 57°39' E 011°52'0 0.1
2017-Apr-09 03:30N 57°39' E 011°51'0 0.1
2017-Apr-09 03:00N 57°39' E 011°52'0 0.1
2017-Apr-09 02:30N 57°39' E 011°52'0 0.1
2017-Apr-09 01:53N 57°39' E 011°51'0 0.1
2017-Apr-09 01:30N 57°39' E 011°52'0 0.0
2017-Apr-09 00:41N 57°39' E 011°52'0 0.0
2017-Apr-09 00:30N 57°39' E 011°52'0 0.0
2017-Apr-09 00:00N 57°39' E 011°52'0 0.0
2017-Apr-08 23:30N 57°39' E 011°52'0 0.0
2017-Apr-08 23:00N 57°39' E 011°52'0 0.0
2017-Apr-08 22:30N 57°39' E 011°52'0 0.0
2017-Apr-08 22:00N 57°39' E 011°52'0 0.0
2017-Apr-08 21:30N 57°39' E 011°52'0 0.0
2017-Apr-08 20:50N 57°39' E 011°52'0 0.1
2017-Apr-08 20:30N 57°39' E 011°52'0 0.0
2017-Apr-08 20:00N 57°39' E 011°52'0 0.0
2017-Apr-08 19:30N 57°39' E 011°52'0 0.0
2017-Apr-08 19:00N 57°39' E 011°52'0 0.0
2017-Apr-08 18:30N 57°39' E 011°52'0 0.0
2017-Apr-08 18:01N 57°39' E 011°52'0 0.0
2017-Apr-08 17:31N 57°39' E 011°52'0 0.0
2017-Apr-08 17:01N 57°39' E 011°52'0 0.0
2017-Apr-08 16:31N 57°39' E 011°52'0 0.0
2017-Apr-08 16:01N 57°39' E 011°52'0 0.0
2017-Apr-08 15:25N 57°39' E 011°52'0 0.0
2017-Apr-08 15:01N 57°39' E 011°52'0 0.0
2017-Apr-08 14:01N 57°39' E 011°52'  

Dump ship's entire track history